Time;durP1;ratioP1;P1;durP2;ratioP2;P2;SDS_P1;SDS_P2;PMS_P1;PMS_P2;Temp;Humidity;BMP_temperature;BMP_pressure;BME280_temperature;BME280_humidity;BME280_pressure;Samples;Min_cycle;Max_cycle;Signal;HPM_P1;HPM_P2
2022/04/15 00:01:16;;;;;;;6.90;5.30;;;;;;;;;;5019707;28;20183;-72
2022/04/15 00:03:41;;;;;;;7.03;5.50;;;;;;;;;;5018758;28;20213;-71
2022/04/15 00:06:08;;;;;;;6.50;5.23;;;;;;;;;;5017698;28;20223;-72
2022/04/15 00:08:34;;;;;;;7.40;5.77;;;;;;;;;;5031097;28;20294;-72
2022/04/15 00:11:00;;;;;;;8.07;5.90;;;;;;;;;;5018004;28;20277;-72
2022/04/15 00:13:26;;;;;;;6.93;5.87;;;;;;;;;;5028638;28;20259;-72
2022/04/15 00:15:51;;;;;;;7.17;5.53;;;;;;;;;;5019308;28;20186;-72
2022/04/15 00:18:16;;;;;;;6.13;4.80;;;;;;;;;;5019290;28;20191;-71
2022/04/15 00:20:41;;;;;;;6.30;5.20;;;;;;;;;;5013279;28;20233;-71
2022/04/15 00:23:07;;;;;;;5.00;4.50;;;;;;;;;;5019161;28;20186;-72
2022/04/15 00:25:32;;;;;;;6.07;4.47;;;;;;;;;;5019046;28;20193;-71
2022/04/15 00:27:57;;;;;;;5.03;4.40;;;;;;;;;;5031545;28;20235;-72
2022/04/15 00:30:22;;;;;;;5.03;4.30;;;;;;;;;;5016876;28;20178;-71
2022/04/15 00:32:47;;;;;;;7.63;4.17;;;;;;;;;;5019741;28;20210;-71
2022/04/15 00:35:13;;;;;;;7.20;4.63;;;;;;;;;;5018085;28;20186;-72
2022/04/15 00:37:38;;;;;;;5.53;5.03;;;;;;;;;;5016061;28;20213;-72
2022/04/15 00:40:06;;;;;;;5.60;4.60;;;;;;;;;;5015089;28;20184;-71
2022/04/15 00:42:31;;;;;;;6.53;4.70;;;;;;;;;;5021536;28;20198;-71
2022/04/15 00:44:57;;;;;;;5.60;5.03;;;;;;;;;;5018315;28;20184;-71
2022/04/15 00:47:30;;;;;;;6.27;5.30;;;;;;;;;;5023795;28;20249;-71
2022/04/15 00:49:56;;;;;;;5.03;4.53;;;;;;;;;;5022903;28;20248;-71
2022/04/15 00:52:21;;;;;;;7.57;4.80;;;;;;;;;;5025789;28;20475;-72
2022/04/15 00:54:51;;;;;;;4.90;4.20;;;;;;;;;;5029288;28;20241;-72
2022/04/15 00:57:16;;;;;;;4.43;3.77;;;;;;;;;;5037024;28;20218;-71
2022/04/15 00:59:42;;;;;;;6.50;4.03;;;;;;;;;;5035197;28;20210;-72
2022/04/15 01:02:08;;;;;;;5.17;4.67;;;;;;;;;;5023568;28;20186;-72
2022/04/15 01:04:33;;;;;;;4.50;4.10;;;;;;;;;;5024302;28;20202;-71
2022/04/15 01:07:02;;;;;;;7.23;4.90;;;;;;;;;;5035750;28;20186;-71
2022/04/15 01:09:31;;;;;;;6.87;4.70;;;;;;;;;;5024045;28;20281;-72
2022/04/15 01:11:56;;;;;;;6.87;4.03;;;;;;;;;;5036246;28;20181;-71
2022/04/15 01:14:24;;;;;;;6.90;4.80;;;;;;;;;;5027474;28;20281;-71
2022/04/15 01:16:49;;;;;;;5.70;4.73;;;;;;;;;;5032310;28;20271;-71
2022/04/15 01:19:14;;;;;;;5.33;4.40;;;;;;;;;;5022665;28;20257;-72
2022/04/15 01:21:39;;;;;;;5.37;4.10;;;;;;;;;;5021674;28;20186;-72
2022/04/15 01:24:05;;;;;;;5.83;4.77;;;;;;;;;;5028887;28;20224;-72
2022/04/15 01:26:30;;;;;;;4.57;4.17;;;;;;;;;;5035103;28;20227;-72
2022/04/15 01:28:57;;;;;;;3.97;3.57;;;;;;;;;;5023720;28;20205;-72
2022/04/15 01:31:22;;;;;;;5.17;4.67;;;;;;;;;;5023680;28;20216;-71
2022/04/15 01:33:47;;;;;;;6.47;4.63;;;;;;;;;;5021003;28;20182;-72
2022/04/15 01:36:14;;;;;;;5.67;4.00;;;;;;;;;;5026055;28;20190;-71
2022/04/15 01:38:39;;;;;;;5.13;3.87;;;;;;;;;;5020579;28;20209;-72
2022/04/15 01:41:04;;;;;;;4.47;4.07;;;;;;;;;;5031441;28;20217;-71
2022/04/15 01:43:29;;;;;;;4.60;4.00;;;;;;;;;;5025896;28;20174;-71
2022/04/15 01:45:55;;;;;;;5.60;4.50;;;;;;;;;;5023025;28;20185;-71
2022/04/15 01:48:20;;;;;;;6.93;4.40;;;;;;;;;;5017882;28;20198;-71
2022/04/15 01:50:46;;;;;;;4.63;4.20;;;;;;;;;;5024117;28;20217;-72
2022/04/15 01:53:11;;;;;;;4.50;3.80;;;;;;;;;;5025807;28;20177;-72
2022/04/15 01:55:36;;;;;;;4.50;4.00;;;;;;;;;;5026171;28;20186;-72
2022/04/15 01:58:02;;;;;;;4.50;4.10;;;;;;;;;;5032510;28;20179;-71
2022/04/15 02:00:27;;;;;;;4.53;3.70;;;;;;;;;;5023772;28;20190;-72
2022/04/15 02:02:52;;;;;;;5.03;4.23;;;;;;;;;;5039140;28;20168;-72
2022/04/15 02:05:18;;;;;;;4.57;4.00;;;;;;;;;;5031323;28;20209;-72
2022/04/15 02:07:43;;;;;;;5.10;3.97;;;;;;;;;;5026927;28;20177;-72
2022/04/15 02:10:08;;;;;;;7.23;4.80;;;;;;;;;;5017742;28;20209;-72
2022/04/15 02:12:34;;;;;;;3.93;3.40;;;;;;;;;;5028729;28;20184;-72
2022/04/15 02:14:59;;;;;;;4.57;3.60;;;;;;;;;;5036696;28;20169;-72
2022/04/15 02:17:24;;;;;;;4.00;3.47;;;;;;;;;;5022899;28;20239;-71
2022/04/15 02:19:52;;;;;;;3.87;3.20;;;;;;;;;;5025630;28;20190;-72
2022/04/15 02:22:17;;;;;;;6.43;4.53;;;;;;;;;;5025812;28;20225;-71
2022/04/15 02:24:42;;;;;;;5.70;4.57;;;;;;;;;;5027412;28;20213;-71
2022/04/15 02:27:07;;;;;;;6.07;4.43;;;;;;;;;;5023297;28;20234;-72
2022/04/15 02:29:33;;;;;;;5.93;4.40;;;;;;;;;;5025799;28;20200;-72
2022/04/15 02:31:58;;;;;;;6.03;4.27;;;;;;;;;;5016746;28;20216;-72
2022/04/15 02:34:24;;;;;;;5.47;4.80;;;;;;;;;;5020505;28;20288;-72
2022/04/15 02:36:49;;;;;;;5.50;4.40;;;;;;;;;;5023209;28;20180;-72
2022/04/15 02:39:14;;;;;;;5.57;4.00;;;;;;;;;;5015159;28;20218;-72
2022/04/15 02:41:40;;;;;;;5.63;4.60;;;;;;;;;;5030807;28;20196;-71
2022/04/15 02:44:06;;;;;;;6.37;4.77;;;;;;;;;;5022300;28;20264;-71
2022/04/15 02:46:31;;;;;;;4.70;4.20;;;;;;;;;;5037893;28;20189;-71
2022/04/15 02:48:56;;;;;;;5.87;4.50;;;;;;;;;;5026132;28;20278;-72
2022/04/15 02:51:22;;;;;;;8.43;4.53;;;;;;;;;;5019087;28;20182;-71
2022/04/15 02:53:47;;;;;;;5.00;3.83;;;;;;;;;;5024997;28;20192;-72
2022/04/15 02:56:12;;;;;;;4.97;3.67;;;;;;;;;;5022988;28;20186;-72
2022/04/15 02:58:37;;;;;;;8.63;4.50;;;;;;;;;;5017815;28;20190;-72
2022/04/15 03:01:02;;;;;;;5.20;4.70;;;;;;;;;;5025843;28;20177;-72
2022/04/15 03:03:28;;;;;;;4.70;4.20;;;;;;;;;;5017552;28;20186;-71
2022/04/15 03:05:53;;;;;;;4.70;4.20;;;;;;;;;;5023747;28;20276;-72
2022/04/15 03:08:18;;;;;;;5.23;4.20;;;;;;;;;;5029806;28;20179;-72
2022/04/15 03:10:43;;;;;;;9.88;5.30;;;;;;;;;;5024193;28;20181;-72
2022/04/15 03:13:08;;;;;;;8.00;5.20;;;;;;;;;;5026079;28;20185;-72
2022/04/15 03:15:37;;;;;;;5.37;4.87;;;;;;;;;;5043435;28;20173;-71
2022/04/15 03:18:02;;;;;;;6.13;5.03;;;;;;;;;;5022689;28;20219;-72
2022/04/15 03:20:28;;;;;;;5.57;4.73;;;;;;;;;;5038181;28;20209;-72
2022/04/15 03:22:54;;;;;;;4.97;4.47;;;;;;;;;;5024597;28;20497;-72
2022/04/15 03:25:19;;;;;;;8.07;6.33;;;;;;;;;;5022677;28;20181;-72
2022/04/15 03:27:44;;;;;;;4.87;4.47;;;;;;;;;;5015609;28;20387;-71
2022/04/15 03:30:11;;;;;;;8.73;5.10;;;;;;;;;;5020034;28;20201;-71
2022/04/15 03:32:49;;;;;;;6.70;5.57;;;;;;;;;;5029044;28;20177;-71
2022/04/15 03:35:15;;;;;;;6.60;5.13;;;;;;;;;;5019274;28;20192;-72
2022/04/15 03:37:40;;;;;;;7.93;5.70;;;;;;;;;;5025431;28;20246;-72
2022/04/15 03:40:05;;;;;;;8.53;6.23;;;;;;;;;;5024582;28;20184;-72
2022/04/15 03:42:31;;;;;;;9.93;7.57;;;;;;;;;;5024367;28;20342;-71
2022/04/15 03:44:56;;;;;;;12.90;8.80;;;;;;;;;;5039583;28;20181;-72
2022/04/15 03:47:22;;;;;;;8.60;6.70;;;;;;;;;;5022347;28;20253;-71
2022/04/15 03:49:47;;;;;;;11.33;7.20;;;;;;;;;;5022860;28;20220;-72
2022/04/15 03:52:12;;;;;;;10.77;7.57;;;;;;;;;;5026497;28;20173;-72
2022/04/15 03:54:38;;;;;;;9.50;7.90;;;;;;;;;;5017226;28;20175;-71
2022/04/15 03:57:03;;;;;;;11.60;7.30;;;;;;;;;;5041292;28;20276;-71
2022/04/15 03:59:28;;;;;;;8.40;7.07;;;;;;;;;;5032554;28;20191;-72
2022/04/15 04:01:53;;;;;;;9.10;6.87;;;;;;;;;;5014907;28;20186;-71
2022/04/15 04:04:18;;;;;;;9.50;8.07;;;;;;;;;;5014214;28;20231;-72
2022/04/15 04:06:43;;;;;;;11.90;8.03;;;;;;;;;;5035082;28;20185;-72
2022/04/15 04:09:09;;;;;;;12.33;9.60;;;;;;;;;;5021759;28;20193;-72
2022/04/15 04:11:34;;;;;;;11.70;8.93;;;;;;;;;;5034048;28;20178;-71
2022/04/15 04:13:59;;;;;;;12.57;8.47;;;;;;;;;;5018907;28;20190;-71
2022/04/15 04:16:24;;;;;;;13.00;8.33;;;;;;;;;;5020867;28;20187;-71
2022/04/15 04:18:49;;;;;;;13.33;9.40;;;;;;;;;;5027838;28;20188;-72
2022/04/15 04:21:15;;;;;;;10.03;8.60;;;;;;;;;;5023179;28;20185;-71
2022/04/15 04:23:40;;;;;;;12.50;9.60;;;;;;;;;;5021410;28;20271;-71
2022/04/15 04:26:05;;;;;;;13.10;9.23;;;;;;;;;;5020131;28;20267;-72
2022/04/15 04:28:31;;;;;;;14.87;10.07;;;;;;;;;;5018580;28;20335;-71
2022/04/15 04:30:56;;;;;;;14.53;10.57;;;;;;;;;;5017485;28;20176;-72
2022/04/15 04:33:21;;;;;;;15.80;11.80;;;;;;;;;;5027401;28;20246;-72
2022/04/15 04:35:47;;;;;;;12.93;10.50;;;;;;;;;;5018856;28;20219;-72
2022/04/15 04:38:12;;;;;;;24.87;16.70;;;;;;;;;;5025140;28;20266;-71
2022/04/15 04:40:37;;;;;;;18.30;12.40;;;;;;;;;;5024328;28;20183;-72
2022/04/15 04:43:04;;;;;;;16.27;11.60;;;;;;;;;;5019559;28;20173;-72
2022/04/15 04:45:29;;;;;;;12.53;9.70;;;;;;;;;;5036890;28;20373;-71
2022/04/15 04:47:55;;;;;;;12.53;9.90;;;;;;;;;;5021061;28;20260;-72
2022/04/15 04:50:20;;;;;;;13.30;9.83;;;;;;;;;;5035724;28;20212;-71
2022/04/15 04:52:48;;;;;;;13.00;9.60;;;;;;;;;;5023045;28;20272;-72
2022/04/15 04:55:14;;;;;;;16.77;9.33;;;;;;;;;;5022403;28;20271;-71
2022/04/15 04:57:42;;;;;;;11.47;9.30;;;;;;;;;;5025326;28;20254;-71
2022/04/15 05:00:07;;;;;;;12.63;8.93;;;;;;;;;;5018588;28;20215;-71
2022/04/15 05:02:32;;;;;;;11.60;7.53;;;;;;;;;;5022559;28;20179;-71
2022/04/15 05:04:58;;;;;;;11.43;7.53;;;;;;;;;;5024245;28;20207;-72
2022/04/15 05:07:23;;;;;;;10.43;7.93;;;;;;;;;;5015429;28;20187;-72
2022/04/15 05:09:48;;;;;;;12.50;8.80;;;;;;;;;;5024169;28;20226;-71
2022/04/15 05:12:14;;;;;;;8.43;7.43;;;;;;;;;;5017048;28;20196;-71
2022/04/15 05:14:39;;;;;;;11.43;7.95;;;;;;;;;;5019268;28;20174;-72
2022/04/15 05:17:04;;;;;;;13.37;9.33;;;;;;;;;;5024627;28;20188;-71
2022/04/15 05:19:29;;;;;;;12.17;8.47;;;;;;;;;;5019815;28;20187;-71
2022/04/15 05:21:54;;;;;;;13.63;9.70;;;;;;;;;;5022819;28;20236;-71
2022/04/15 05:24:19;;;;;;;12.77;8.67;;;;;;;;;;5025880;28;20172;-71
2022/04/15 05:26:45;;;;;;;16.37;10.87;;;;;;;;;;5023368;28;20238;-71
2022/04/15 05:29:10;;;;;;;14.23;10.37;;;;;;;;;;5019888;28;20256;-71
2022/04/15 05:31:35;;;;;;;18.17;12.63;;;;;;;;;;5020372;28;20183;-71
2022/04/15 05:34:01;;;;;;;16.40;11.10;;;;;;;;;;5018183;28;20278;-71
2022/04/15 05:36:26;;;;;;;12.80;10.60;;;;;;;;;;5025658;28;20179;-71
2022/04/15 05:38:51;;;;;;;20.10;12.77;;;;;;;;;;5017039;28;20497;-71
2022/04/15 05:41:16;;;;;;;15.02;11.55;;;;;;;;;;5015102;28;20251;-71
2022/04/15 05:43:43;;;;;;;15.50;11.50;;;;;;;;;;5018744;28;20189;-71
2022/04/15 05:46:08;;;;;;;17.00;11.57;;;;;;;;;;5022246;28;20452;-71
2022/04/15 05:48:33;;;;;;;17.30;12.63;;;;;;;;;;5019453;28;20201;-71
2022/04/15 05:50:58;;;;;;;21.37;13.33;;;;;;;;;;5035946;28;20165;-71
2022/04/15 05:53:24;;;;;;;16.60;13.37;;;;;;;;;;5021543;28;20226;-71
2022/04/15 05:55:49;;;;;;;19.00;12.10;;;;;;;;;;5017652;28;20199;-71
2022/04/15 05:58:14;;;;;;;30.00;16.47;;;;;;;;;;5022980;28;20185;-71
2022/04/15 06:00:39;;;;;;;25.30;16.27;;;;;;;;;;5028809;28;20193;-72
2022/04/15 06:03:07;;;;;;;25.23;18.53;;;;;;;;;;5018847;28;20239;-71
2022/04/15 06:05:32;;;;;;;32.50;18.93;;;;;;;;;;5018989;28;20203;-72
2022/04/15 06:07:57;;;;;;;25.57;18.83;;;;;;;;;;5015798;28;20268;-71
2022/04/15 06:10:22;;;;;;;29.23;21.37;;;;;;;;;;5017160;28;20412;-71
2022/04/15 06:13:09;;;;;;;33.97;22.50;;;;;;;;;;5023793;28;20188;-71
2022/04/15 06:15:36;;;;;;;25.97;18.30;;;;;;;;;;5019538;28;20188;-71
2022/04/15 06:18:01;;;;;;;31.13;21.10;;;;;;;;;;5023319;28;20172;-72
2022/04/15 06:20:27;;;;;;;30.97;25.37;;;;;;;;;;5021309;28;20179;-71
2022/04/15 06:22:53;;;;;;;31.90;24.17;;;;;;;;;;5019650;28;20222;-71
2022/04/15 06:25:18;;;;;;;27.87;22.27;;;;;;;;;;5021668;28;20259;-71
2022/04/15 06:27:43;;;;;;;29.97;21.50;;;;;;;;;;5015715;28;20236;-71
2022/04/15 06:30:08;;;;;;;30.13;22.40;;;;;;;;;;5017853;28;20200;-71
2022/04/15 06:32:34;;;;;;;30.77;22.83;;;;;;;;;;5018137;28;20176;-71
2022/04/15 06:35:00;;;;;;;28.47;21.67;;;;;;;;;;5018253;28;20185;-72
2022/04/15 06:37:25;;;;;;;28.97;21.50;;;;;;;;;;5017101;28;20434;-72
2022/04/15 06:39:51;;;;;;;29.40;21.40;;;;;;;;;;5021275;28;20174;-71
2022/04/15 06:42:23;;;;;;;26.43;19.47;;;;;;;;;;5023927;28;20184;-71
2022/04/15 06:44:48;;;;;;;30.33;22.30;;;;;;;;;;5023064;28;20193;-71
2022/04/15 06:47:13;;;;;;;30.67;23.13;;;;;;;;;;5023511;28;20202;-71
2022/04/15 06:49:38;;;;;;;26.80;23.17;;;;;;;;;;5017767;28;20197;-71
2022/04/15 06:52:04;;;;;;;27.17;19.83;;;;;;;;;;5018483;28;20227;-71
2022/04/15 06:54:29;;;;;;;26.83;19.80;;;;;;;;;;5015800;28;20176;-71
2022/04/15 06:56:54;;;;;;;25.40;21.53;;;;;;;;;;5014874;28;20174;-72
2022/04/15 06:59:19;;;;;;;22.93;19.13;;;;;;;;;;5022445;28;20208;-71
2022/04/15 07:01:46;;;;;;;25.13;20.57;;;;;;;;;;5035866;28;20179;-72
2022/04/15 07:04:11;;;;;;;24.90;19.03;;;;;;;;;;5022118;28;20210;-71
2022/04/15 07:06:37;;;;;;;25.20;19.40;;;;;;;;;;5018975;28;20189;-71
2022/04/15 07:09:02;;;;;;;22.63;18.40;;;;;;;;;;5019259;28;20206;-71
2022/04/15 07:11:27;;;;;;;23.87;19.80;;;;;;;;;;5022980;28;20190;-71
2022/04/15 07:13:52;;;;;;;23.60;18.77;;;;;;;;;;5012451;28;20183;-71
2022/04/15 07:16:17;;;;;;;23.03;17.70;;;;;;;;;;5018640;28;20185;-71
2022/04/15 07:18:42;;;;;;;23.30;20.80;;;;;;;;;;5020953;28;20190;-72
2022/04/15 07:21:08;;;;;;;23.87;18.53;;;;;;;;;;5021112;28;20193;-71
2022/04/15 07:23:33;;;;;;;23.13;20.37;;;;;;;;;;5033424;28;20272;-71
2022/04/15 07:25:58;;;;;;;20.70;17.53;;;;;;;;;;5018870;28;20183;-71
2022/04/15 07:28:23;;;;;;;21.67;17.97;;;;;;;;;;5015303;28;20261;-72
2022/04/15 07:30:52;;;;;;;20.33;17.27;;;;;;;;;;5022540;28;20209;-71
2022/04/15 07:33:19;;;;;;;21.90;17.13;;;;;;;;;;5020500;28;20181;-71
2022/04/15 07:35:44;;;;;;;23.20;19.07;;;;;;;;;;5019947;28;20210;-72
2022/04/15 07:38:10;;;;;;;20.53;18.00;;;;;;;;;;5021111;28;20218;-71
2022/04/15 07:40:35;;;;;;;20.40;17.30;;;;;;;;;;5016770;28;20178;-71
2022/04/15 07:43:01;;;;;;;21.83;17.07;;;;;;;;;;5016811;28;20272;-71
2022/04/15 07:45:27;;;;;;;20.03;16.30;;;;;;;;;;5024005;28;20186;-72
2022/04/15 07:47:52;;;;;;;20.30;18.07;;;;;;;;;;5017323;28;20188;-72
2022/04/15 07:50:23;;;;;;;21.00;18.80;;;;;;;;;;5021330;28;20205;-72
2022/04/15 07:52:49;;;;;;;20.57;17.80;;;;;;;;;;5026440;28;20178;-72
2022/04/15 07:55:14;;;;;;;20.43;16.93;;;;;;;;;;5024642;28;20254;-71
2022/04/15 07:57:40;;;;;;;19.73;17.70;;;;;;;;;;5028719;28;20190;-71
2022/04/15 08:00:05;;;;;;;21.80;17.90;;;;;;;;;;5018101;28;20282;-72
2022/04/15 08:02:30;;;;;;;21.80;18.03;;;;;;;;;;5016507;28;20244;-72
2022/04/15 08:04:56;;;;;;;19.97;16.67;;;;;;;;;;5011132;28;20291;-71
2022/04/15 08:07:22;;;;;;;20.47;16.77;;;;;;;;;;5016652;28;20192;-71
2022/04/15 08:09:47;;;;;;;23.13;20.73;;;;;;;;;;5023795;28;20221;-71
2022/04/15 08:12:12;;;;;;;23.10;19.27;;;;;;;;;;5022099;28;20175;-71
2022/04/15 08:14:38;;;;;;;23.23;19.47;;;;;;;;;;5040160;28;20265;-71
2022/04/15 08:17:03;;;;;;;18.97;16.93;;;;;;;;;;5019359;28;20175;-72
2022/04/15 08:19:28;;;;;;;20.23;17.90;;;;;;;;;;5019886;28;20593;-71
2022/04/15 08:21:53;;;;;;;20.03;17.93;;;;;;;;;;5028663;28;20180;-72
2022/04/15 08:24:19;;;;;;;20.80;18.60;;;;;;;;;;5025495;28;20224;-72
2022/04/15 08:26:45;;;;;;;22.03;19.40;;;;;;;;;;5019555;28;20235;-72
2022/04/15 08:29:11;;;;;;;23.87;17.10;;;;;;;;;;5012271;28;20204;-71
2022/04/15 08:31:36;;;;;;;19.73;17.60;;;;;;;;;;5037441;28;20266;-72
2022/04/15 08:34:02;;;;;;;20.63;18.47;;;;;;;;;;5020689;28;20512;-72
2022/04/15 08:36:27;;;;;;;20.07;18.10;;;;;;;;;;5016739;28;20210;-72
2022/04/15 08:38:53;;;;;;;19.20;16.80;;;;;;;;;;5020603;28;20228;-72
2022/04/15 08:41:19;;;;;;;20.30;18.30;;;;;;;;;;5023087;28;20220;-72
2022/04/15 08:43:44;;;;;;;18.23;16.23;;;;;;;;;;5020984;28;20184;-72
2022/04/15 08:46:11;;;;;;;16.53;14.23;;;;;;;;;;5038015;28;20185;-71
2022/04/15 08:48:37;;;;;;;17.10;15.23;;;;;;;;;;5023258;28;20262;-72
2022/04/15 08:51:02;;;;;;;18.63;16.43;;;;;;;;;;5022291;28;20572;-71
2022/04/15 08:53:28;;;;;;;16.90;15.10;;;;;;;;;;5022004;28;20199;-71
2022/04/15 08:55:53;;;;;;;19.77;15.77;;;;;;;;;;5016395;28;20176;-71
2022/04/15 08:58:18;;;;;;;19.93;16.23;;;;;;;;;;5021064;28;20180;-72
2022/04/15 09:00:43;;;;;;;18.70;16.67;;;;;;;;;;5019316;28;20179;-72
2022/04/15 09:03:08;;;;;;;19.17;16.73;;;;;;;;;;5019137;28;20192;-72
2022/04/15 09:05:34;;;;;;;16.93;15.10;;;;;;;;;;5018692;28;20517;-72
2022/04/15 09:08:04;;;;;;;17.53;15.73;;;;;;;;;;5028773;28;20239;-72
2022/04/15 09:10:29;;;;;;;19.00;17.00;;;;;;;;;;5031682;28;20208;-72
2022/04/15 09:12:54;;;;;;;18.10;16.27;;;;;;;;;;5027615;28;20256;-72
2022/04/15 09:15:20;;;;;;;18.20;16.30;;;;;;;;;;5016235;28;20201;-71
2022/04/15 09:17:49;;;;;;;17.57;15.73;;;;;;;;;;5035410;28;20184;-72
2022/04/15 09:20:15;;;;;;;17.10;15.03;;;;;;;;;;5023241;28;20243;-72
2022/04/15 09:22:40;;;;;;;15.73;13.73;;;;;;;;;;5027716;28;20193;-72
2022/04/15 09:25:06;;;;;;;17.03;14.97;;;;;;;;;;5022978;28;20225;-72
2022/04/15 09:27:33;;;;;;;19.03;16.30;;;;;;;;;;5027320;28;20365;-72
2022/04/15 09:29:58;;;;;;;17.40;15.60;;;;;;;;;;5038519;28;20206;-72
2022/04/15 09:32:24;;;;;;;19.17;16.37;;;;;;;;;;5028106;28;20182;-72
2022/04/15 09:35:05;;;;;;;17.77;15.17;;;;;;;;;;5023805;28;20190;-72
2022/04/15 09:37:34;;;;;;;16.97;15.13;;;;;;;;;;5017543;28;20204;-71
2022/04/15 09:40:03;;;;;;;21.57;14.90;;;;;;;;;;5026516;28;20184;-72
2022/04/15 09:42:29;;;;;;;17.37;15.50;;;;;;;;;;5026448;28;20234;-72
2022/04/15 09:44:57;;;;;;;16.07;14.47;;;;;;;;;;5012492;28;20230;-72
2022/04/15 09:47:22;;;;;;;16.80;15.10;;;;;;;;;;5021180;28;20238;-71
2022/04/15 09:49:47;;;;;;;17.80;16.07;;;;;;;;;;5021013;28;20207;-72
2022/04/15 09:52:23;;;;;;;18.07;15.53;;;;;;;;;;5026473;28;20182;-72
2022/04/15 09:54:49;;;;;;;15.23;12.80;;;;;;;;;;5041612;28;20182;-72
2022/04/15 09:57:15;;;;;;;16.77;14.97;;;;;;;;;;5025479;28;20172;-72
2022/04/15 09:59:44;;;;;;;16.97;13.20;;;;;;;;;;5027873;28;20215;-71
2022/04/15 10:02:11;;;;;;;15.63;14.03;;;;;;;;;;5022108;28;20462;-72
2022/04/15 10:04:37;;;;;;;13.40;12.00;;;;;;;;;;5028648;28;20201;-72
2022/04/15 10:07:06;;;;;;;16.90;13.77;;;;;;;;;;5025413;28;20191;-72
2022/04/15 10:09:35;;;;;;;15.80;13.43;;;;;;;;;;5023657;28;20196;-73
2022/04/15 10:12:01;;;;;;;17.07;15.37;;;;;;;;;;5033495;28;20273;-72
2022/04/15 10:14:27;;;;;;;17.77;15.73;;;;;;;;;;5026836;28;20234;-72
2022/04/15 10:16:52;;;;;;;16.10;14.50;;;;;;;;;;5025528;28;20190;-72
2022/04/15 10:19:18;;;;;;;15.77;13.07;;;;;;;;;;5022791;28;20196;-72
2022/04/15 10:21:45;;;;;;;14.30;12.80;;;;;;;;;;5020175;28;20198;-72
2022/04/15 10:24:10;;;;;;;14.20;12.70;;;;;;;;;;5025437;28;20177;-72
2022/04/15 10:26:43;;;;;;;15.33;13.57;;;;;;;;;;5023514;28;20290;-72
2022/04/15 10:29:09;;;;;;;16.50;14.83;;;;;;;;;;5029416;28;20294;-72
2022/04/15 10:31:39;;;;;;;14.00;12.40;;;;;;;;;;5039463;28;20273;-72
2022/04/15 10:34:12;;;;;;;15.93;13.57;;;;;;;;;;5014427;28;21697;-72
2022/04/15 10:36:38;;;;;;;16.23;13.83;;;;;;;;;;5016119;28;20187;-73
2022/04/15 10:39:03;;;;;;;18.57;16.77;;;;;;;;;;5019585;28;20180;-71
2022/04/15 10:41:50;;;;;;;14.60;13.10;;;;;;;;;;5021653;28;20185;-72
2022/04/15 10:44:33;;;;;;;14.50;12.97;;;;;;;;;;5014448;28;20186;-72
2022/04/15 10:47:09;;;;;;;18.10;15.93;;;;;;;;;;5028666;28;20182;-72
2022/04/15 10:49:39;;;;;;;14.63;13.13;;;;;;;;;;5022520;28;20260;-72
2022/04/15 10:52:18;;;;;;;15.83;13.63;;;;;;;;;;5035888;28;20182;-72
2022/04/15 10:54:45;;;;;;;15.87;13.83;;;;;;;;;;5044326;28;20194;-72
2022/04/15 10:57:14;;;;;;;14.83;13.37;;;;;;;;;;5032351;28;20186;-72
2022/04/15 11:02:24;;;;;;;16.33;12.70;;;;;;;;;;5025760;28;20260;-71
2022/04/15 11:04:50;;;;;;;12.70;9.53;;;;;;;;;;5029883;28;20273;-72
2022/04/15 11:07:28;;;;;;;12.73;11.07;;;;;;;;;;5021561;28;20188;-72
2022/04/15 11:09:53;;;;;;;14.27;12.73;;;;;;;;;;5028195;28;20206;-72
2022/04/15 11:12:34;;;;;;;14.57;12.13;;;;;;;;;;5024412;28;20207;-72
2022/04/15 11:14:59;;;;;;;15.23;12.97;;;;;;;;;;5029234;28;20186;-72
2022/04/15 11:17:41;;;;;;;14.77;12.77;;;;;;;;;;5029575;28;20165;-72
2022/04/15 11:20:09;;;;;;;13.30;11.47;;;;;;;;;;5025186;28;20189;-72
2022/04/15 11:22:38;;;;;;;13.00;11.00;;;;;;;;;;5019023;28;20538;-72
2022/04/15 11:25:05;;;;;;;13.73;10.73;;;;;;;;;;5023944;28;20170;-72
2022/04/15 11:27:33;;;;;;;11.27;10.07;;;;;;;;;;5021729;28;20230;-72
2022/04/15 11:29:58;;;;;;;8.97;8.07;;;;;;;;;;5028566;28;20220;-72
2022/04/15 11:32:23;;;;;;;12.93;8.33;;;;;;;;;;5014979;28;20173;-72
2022/04/15 11:34:54;;;;;;;10.33;9.23;;;;;;;;;;5023810;28;20177;-72
2022/04/15 11:37:19;;;;;;;10.70;8.70;;;;;;;;;;5025875;28;20186;-72
2022/04/15 11:39:46;;;;;;;11.90;9.30;;;;;;;;;;5023969;28;20317;-72
2022/04/15 11:42:12;;;;;;;13.03;11.37;;;;;;;;;;5015625;28;20223;-72
2022/04/15 11:44:37;;;;;;;13.87;11.10;;;;;;;;;;5025501;28;20205;-73
2022/04/15 11:47:23;;;;;;;12.27;9.90;;;;;;;;;;5028153;28;20193;-73
2022/04/15 11:49:51;;;;;;;13.57;11.83;;;;;;;;;;5024718;28;20197;-72
2022/04/15 11:52:21;;;;;;;12.93;11.43;;;;;;;;;;5026416;28;20179;-72
2022/04/15 11:54:47;;;;;;;14.33;11.80;;;;;;;;;;5025424;28;20218;-72
2022/04/15 11:57:12;;;;;;;14.77;12.13;;;;;;;;;;5023834;28;20229;-72
2022/04/15 11:59:38;;;;;;;13.00;11.53;;;;;;;;;;5015968;28;20198;-72
2022/04/15 12:02:04;;;;;;;13.60;11.73;;;;;;;;;;5024675;28;20184;-72
2022/04/15 12:04:29;;;;;;;14.10;12.43;;;;;;;;;;5024295;28;20264;-72
2022/04/15 12:06:54;;;;;;;13.98;10.90;;;;;;;;;;5020224;28;20214;-72
2022/04/15 12:09:19;;;;;;;12.87;11.60;;;;;;;;;;5026309;28;20209;-72
2022/04/15 12:11:44;;;;;;;12.73;11.07;;;;;;;;;;5034816;28;20271;-72
2022/04/15 12:14:10;;;;;;;12.33;11.00;;;;;;;;;;5027735;28;20183;-72
2022/04/15 12:16:38;;;;;;;15.93;12.00;;;;;;;;;;5021929;28;20175;-72
2022/04/15 12:19:03;;;;;;;13.10;11.17;;;;;;;;;;5028723;28;20187;-72
2022/04/15 12:21:29;;;;;;;11.77;10.67;;;;;;;;;;5027137;28;20243;-72
2022/04/15 12:24:01;;;;;;;12.40;11.20;;;;;;;;;;5038645;28;20187;-72
2022/04/15 12:26:26;;;;;;;11.00;9.73;;;;;;;;;;5014967;28;20262;-72
2022/04/15 12:31:35;;;;;;;12.20;10.17;;;;;;;;;;5026532;28;20242;-72
2022/04/15 12:34:00;;;;;;;10.07;8.97;;;;;;;;;;5017379;28;20184;-72
2022/04/15 12:36:42;;;;;;;8.53;7.67;;;;;;;;;;5025168;28;20180;-72
2022/04/15 12:39:08;;;;;;;6.30;5.70;;;;;;;;;;5023167;28;20207;-72
2022/04/15 12:41:42;;;;;;;7.63;6.80;;;;;;;;;;5022341;28;20179;-72
2022/04/15 12:44:18;;;;;;;8.10;7.30;;;;;;;;;;5040569;28;20215;-72
2022/04/15 12:46:44;;;;;;;10.70;9.03;;;;;;;;;;5040581;28;20186;-72
2022/04/15 12:49:25;;;;;;;7.97;7.17;;;;;;;;;;5017666;28;20212;-72
2022/04/15 12:51:50;;;;;;;8.43;7.63;;;;;;;;;;5040021;28;20268;-72
2022/04/15 12:54:15;;;;;;;9.63;8.00;;;;;;;;;;5024049;28;20256;-72
2022/04/15 12:56:57;;;;;;;8.57;7.77;;;;;;;;;;5017237;28;20202;-72
2022/04/15 12:59:22;;;;;;;9.43;8.50;;;;;;;;;;5024491;28;20190;-72
2022/04/15 13:01:49;;;;;;;8.73;7.93;;;;;;;;;;5026596;28;20269;-72
2022/04/15 13:04:15;;;;;;;9.67;7.83;;;;;;;;;;5022410;28;20205;-72
2022/04/15 13:06:40;;;;;;;10.57;9.43;;;;;;;;;;5018436;28;20206;-72
2022/04/15 13:09:05;;;;;;;7.97;7.10;;;;;;;;;;5026031;28;20209;-73
2022/04/15 13:11:30;;;;;;;9.47;8.53;;;;;;;;;;5027980;28;20188;-72
2022/04/15 13:13:55;;;;;;;19.83;15.27;;;;;;;;;;5028702;28;20177;-72
2022/04/15 13:16:21;;;;;;;10.70;9.00;;;;;;;;;;5020298;28;20172;-72
2022/04/15 13:18:47;;;;;;;8.77;7.93;;;;;;;;;;5033113;28;20456;-72
2022/04/15 13:21:12;;;;;;;7.60;6.80;;;;;;;;;;5024925;28;20247;-73
2022/04/15 13:23:37;;;;;;;7.90;7.20;;;;;;;;;;5026723;28;20218;-72
2022/04/15 13:26:02;;;;;;;6.67;5.90;;;;;;;;;;5023806;28;20180;-72
2022/04/15 13:28:28;;;;;;;7.87;6.83;;;;;;;;;;5029067;28;20217;-72
2022/04/15 13:30:53;;;;;;;19.80;18.10;;;;;;;;;;5027888;28;20573;-73
2022/04/15 13:33:18;;;;;;;7.57;6.87;;;;;;;;;;5026050;28;20161;-72
2022/04/15 13:35:43;;;;;;;7.70;6.83;;;;;;;;;;5021442;28;20178;-73
2022/04/15 13:38:08;;;;;;;10.67;7.53;;;;;;;;;;5027542;28;20263;-72
2022/04/15 13:40:35;;;;;;;10.17;6.83;;;;;;;;;;5040564;28;20188;-72
2022/04/15 13:43:01;;;;;;;7.40;6.80;;;;;;;;;;5038299;28;20205;-72
2022/04/15 13:45:26;;;;;;;7.07;6.23;;;;;;;;;;5028682;28;20178;-72
2022/04/15 13:47:51;;;;;;;9.50;8.60;;;;;;;;;;5025761;28;20266;-72
2022/04/15 13:50:16;;;;;;;13.60;6.70;;;;;;;;;;5019171;28;20203;-73
2022/04/15 13:58:11;;;;;;;9.17;7.23;;;;;;;;;;5029164;28;20224;-72
2022/04/15 14:00:36;;;;;;;7.90;7.13;;;;;;;;;;5035441;28;20234;-72
2022/04/15 14:03:02;;;;;;;8.53;7.77;;;;;;;;;;5025665;28;20181;-72
2022/04/15 14:05:27;;;;;;;8.03;7.13;;;;;;;;;;5021637;28;20297;-73
2022/04/15 14:07:52;;;;;;;8.60;7.63;;;;;;;;;;5031220;28;20274;-72
2022/04/15 14:10:17;;;;;;;6.35;5.72;;;;;;;;;;5021998;28;20287;-73
2022/04/15 14:12:43;;;;;;;8.23;7.40;;;;;;;;;;5024466;28;20207;-72
2022/04/15 14:15:10;;;;;;;7.70;7.00;;;;;;;;;;5026953;28;20478;-72
2022/04/15 14:17:35;;;;;;;7.97;6.93;;;;;;;;;;5026478;28;20189;-72
2022/04/15 14:20:00;;;;;;;7.60;6.90;;;;;;;;;;5017552;28;20189;-73
2022/04/15 14:22:28;;;;;;;7.23;6.13;;;;;;;;;;5021295;28;20186;-73
2022/04/15 14:24:53;;;;;;;7.60;6.80;;;;;;;;;;5027393;28;20508;-72
2022/04/15 14:27:18;;;;;;;8.77;7.10;;;;;;;;;;5025877;28;20250;-72
2022/04/15 14:29:43;;;;;;;8.10;7.30;;;;;;;;;;5040860;28;20214;-72
2022/04/15 14:32:09;;;;;;;9.10;8.30;;;;;;;;;;5023143;28;20173;-72
2022/04/15 14:34:35;;;;;;;9.73;8.30;;;;;;;;;;5034886;28;20182;-73